Tarialan, Mongolia
Current Conditions -  °F | °C
As of 12:30 PM on Friday 21 Nov 2014 (Local Time) from UIII Reporting Station
Clear Clear  
Wind Chill: 11°   Ceiling: Unl
Heat Index: 23°   Visibility: 6mi
Dew Point:   Wind: 13mph
Humidity: 54%   Direction: 150°SSE
Pressure: 29.91"   Gusts: NA
Location:  49.57°N, 102°E
Report Text: UIII 210430Z 15006MPS CAVOK M05/M13 Q1013 NOSIG RMK QFE717/095612810360
Loading
Personal Weather Stations






























Interactive Weather Map New forecast layout! Learn more

10-Day Weather Forecast

Advertisements
Track Severe Weather on mobile